sensor_id;sensor_type;location;lat;lon;timestamp;P1;durP1;ratioP1;P2;durP2;ratioP2
12631;SDS011;6381;45.748;12.106;2023-12-28T00:02:09;34.63;;;29.90;;
12631;SDS011;6381;45.748;12.106;2023-12-28T00:04:39;33.57;;;29.77;;
12631;SDS011;6381;45.748;12.106;2023-12-28T00:07:12;33.70;;;28.47;;
12631;SDS011;6381;45.748;12.106;2023-12-28T00:09:48;35.60;;;29.53;;
12631;SDS011;6381;45.748;12.106;2023-12-28T00:12:19;32.87;;;29.30;;
12631;SDS011;6381;45.748;12.106;2023-12-28T00:14:50;34.93;;;29.17;;
12631;SDS011;6381;45.748;12.106;2023-12-28T00:17:21;34.73;;;28.37;;
12631;SDS011;6381;45.748;12.106;2023-12-28T00:19:51;35.20;;;29.57;;
12631;SDS011;6381;45.748;12.106;2023-12-28T00:22:22;31.90;;;26.80;;
12631;SDS011;6381;45.748;12.106;2023-12-28T00:24:53;32.70;;;28.27;;
12631;SDS011;6381;45.748;12.106;2023-12-28T00:27:23;32.30;;;27.23;;
12631;SDS011;6381;45.748;12.106;2023-12-28T00:29:53;30.43;;;26.47;;
12631;SDS011;6381;45.748;12.106;2023-12-28T00:32:23;33.03;;;27.67;;
12631;SDS011;6381;45.748;12.106;2023-12-28T00:34:53;31.93;;;27.47;;
12631;SDS011;6381;45.748;12.106;2023-12-28T00:37:23;29.73;;;26.00;;
12631;SDS011;6381;45.748;12.106;2023-12-28T00:39:55;30.40;;;26.47;;
12631;SDS011;6381;45.748;12.106;2023-12-28T00:42:25;29.17;;;26.00;;
12631;SDS011;6381;45.748;12.106;2023-12-28T00:44:55;33.27;;;25.73;;
12631;SDS011;6381;45.748;12.106;2023-12-28T00:47:26;30.67;;;25.57;;
12631;SDS011;6381;45.748;12.106;2023-12-28T00:49:56;29.07;;;25.03;;
12631;SDS011;6381;45.748;12.106;2023-12-28T00:52:27;32.93;;;26.07;;
12631;SDS011;6381;45.748;12.106;2023-12-28T00:54:59;27.93;;;24.67;;
12631;SDS011;6381;45.748;12.106;2023-12-28T00:57:29;30.83;;;26.53;;
12631;SDS011;6381;45.748;12.106;2023-12-28T01:00:00;27.07;;;24.00;;
12631;SDS011;6381;45.748;12.106;2023-12-28T01:02:30;30.10;;;25.67;;
12631;SDS011;6381;45.748;12.106;2023-12-28T01:05:00;28.17;;;25.03;;
12631;SDS011;6381;45.748;12.106;2023-12-28T01:07:31;27.67;;;23.80;;
12631;SDS011;6381;45.748;12.106;2023-12-28T01:10:02;33.47;;;26.70;;
12631;SDS011;6381;45.748;12.106;2023-12-28T01:12:33;27.20;;;23.60;;
12631;SDS011;6381;45.748;12.106;2023-12-28T01:15:03;32.13;;;26.30;;
12631;SDS011;6381;45.748;12.106;2023-12-28T01:17:35;34.83;;;27.47;;
12631;SDS011;6381;45.748;12.106;2023-12-28T01:20:05;29.07;;;24.40;;
12631;SDS011;6381;45.748;12.106;2023-12-28T01:22:36;32.40;;;26.83;;
12631;SDS011;6381;45.748;12.106;2023-12-28T01:25:08;37.67;;;27.03;;
12631;SDS011;6381;45.748;12.106;2023-12-28T01:27:40;29.53;;;25.23;;
12631;SDS011;6381;45.748;12.106;2023-12-28T01:30:10;32.03;;;25.13;;
12631;SDS011;6381;45.748;12.106;2023-12-28T01:32:41;29.33;;;23.67;;
12631;SDS011;6381;45.748;12.106;2023-12-28T01:35:10;29.63;;;25.90;;
12631;SDS011;6381;45.748;12.106;2023-12-28T01:37:40;27.50;;;24.43;;
12631;SDS011;6381;45.748;12.106;2023-12-28T01:40:12;30.20;;;25.07;;
12631;SDS011;6381;45.748;12.106;2023-12-28T01:42:45;28.20;;;24.33;;
12631;SDS011;6381;45.748;12.106;2023-12-28T01:45:15;26.80;;;23.77;;
12631;SDS011;6381;45.748;12.106;2023-12-28T01:47:45;30.07;;;23.93;;
12631;SDS011;6381;45.748;12.106;2023-12-28T01:50:17;28.40;;;23.10;;
12631;SDS011;6381;45.748;12.106;2023-12-28T01:52:48;31.53;;;24.93;;
12631;SDS011;6381;45.748;12.106;2023-12-28T01:55:20;26.30;;;22.13;;
12631;SDS011;6381;45.748;12.106;2023-12-28T01:57:50;28.17;;;23.07;;
12631;SDS011;6381;45.748;12.106;2023-12-28T02:00:20;26.97;;;22.37;;
12631;SDS011;6381;45.748;12.106;2023-12-28T02:02:51;27.40;;;23.20;;
12631;SDS011;6381;45.748;12.106;2023-12-28T02:05:21;27.20;;;23.77;;
12631;SDS011;6381;45.748;12.106;2023-12-28T02:07:52;30.03;;;25.37;;
12631;SDS011;6381;45.748;12.106;2023-12-28T02:10:25;28.70;;;23.77;;
12631;SDS011;6381;45.748;12.106;2023-12-28T02:12:55;28.17;;;23.63;;
12631;SDS011;6381;45.748;12.106;2023-12-28T02:15:25;27.77;;;22.57;;
12631;SDS011;6381;45.748;12.106;2023-12-28T02:17:58;28.03;;;23.53;;
12631;SDS011;6381;45.748;12.106;2023-12-28T02:20:30;26.80;;;23.90;;
12631;SDS011;6381;45.748;12.106;2023-12-28T02:23:03;25.43;;;22.67;;
12631;SDS011;6381;45.748;12.106;2023-12-28T02:25:36;29.27;;;23.80;;
12631;SDS011;6381;45.748;12.106;2023-12-28T02:28:05;29.03;;;24.20;;
12631;SDS011;6381;45.748;12.106;2023-12-28T02:30:36;30.87;;;25.20;;
12631;SDS011;6381;45.748;12.106;2023-12-28T02:33:08;27.83;;;23.57;;
12631;SDS011;6381;45.748;12.106;2023-12-28T02:35:45;27.03;;;22.87;;
12631;SDS011;6381;45.748;12.106;2023-12-28T02:38:20;31.83;;;25.20;;
12631;SDS011;6381;45.748;12.106;2023-12-28T02:40:56;49.27;;;29.47;;
12631;SDS011;6381;45.748;12.106;2023-12-28T02:43:27;51.13;;;29.77;;
12631;SDS011;6381;45.748;12.106;2023-12-28T02:45:57;40.03;;;27.57;;
12631;SDS011;6381;45.748;12.106;2023-12-28T02:48:27;34.13;;;24.67;;
12631;SDS011;6381;45.748;12.106;2023-12-28T02:50:57;28.30;;;22.93;;
12631;SDS011;6381;45.748;12.106;2023-12-28T02:53:27;26.90;;;24.03;;
12631;SDS011;6381;45.748;12.106;2023-12-28T02:55:58;28.07;;;22.40;;
12631;SDS011;6381;45.748;12.106;2023-12-28T02:58:28;27.67;;;23.07;;
12631;SDS011;6381;45.748;12.106;2023-12-28T03:00:58;26.83;;;23.00;;
12631;SDS011;6381;45.748;12.106;2023-12-28T03:03:28;25.07;;;22.00;;
12631;SDS011;6381;45.748;12.106;2023-12-28T03:05:58;27.87;;;22.73;;
12631;SDS011;6381;45.748;12.106;2023-12-28T03:08:28;28.63;;;22.60;;
12631;SDS011;6381;45.748;12.106;2023-12-28T03:11:00;26.57;;;21.97;;
12631;SDS011;6381;45.748;12.106;2023-12-28T03:13:29;25.07;;;22.23;;
12631;SDS011;6381;45.748;12.106;2023-12-28T03:16:01;26.40;;;21.83;;
12631;SDS011;6381;45.748;12.106;2023-12-28T03:18:31;24.50;;;21.83;;
12631;SDS011;6381;45.748;12.106;2023-12-28T03:21:01;27.97;;;22.70;;
12631;SDS011;6381;45.748;12.106;2023-12-28T03:23:31;26.23;;;21.43;;
12631;SDS011;6381;45.748;12.106;2023-12-28T03:26:02;24.77;;;22.03;;
12631;SDS011;6381;45.748;12.106;2023-12-28T03:28:33;26.50;;;22.70;;
12631;SDS011;6381;45.748;12.106;2023-12-28T03:31:03;26.43;;;22.33;;
12631;SDS011;6381;45.748;12.106;2023-12-28T03:33:34;25.67;;;22.27;;
12631;SDS011;6381;45.748;12.106;2023-12-28T03:36:04;25.97;;;22.30;;
12631;SDS011;6381;45.748;12.106;2023-12-28T03:38:34;29.93;;;23.60;;
12631;SDS011;6381;45.748;12.106;2023-12-28T03:41:06;29.97;;;24.60;;
12631;SDS011;6381;45.748;12.106;2023-12-28T03:43:46;27.83;;;24.50;;
12631;SDS011;6381;45.748;12.106;2023-12-28T03:46:16;30.27;;;25.13;;
12631;SDS011;6381;45.748;12.106;2023-12-28T03:48:46;31.30;;;26.70;;
12631;SDS011;6381;45.748;12.106;2023-12-28T03:51:16;34.37;;;27.20;;
12631;SDS011;6381;45.748;12.106;2023-12-28T03:53:47;30.97;;;26.97;;
12631;SDS011;6381;45.748;12.106;2023-12-28T03:56:19;32.83;;;29.30;;
12631;SDS011;6381;45.748;12.106;2023-12-28T03:58:53;34.57;;;30.70;;
12631;SDS011;6381;45.748;12.106;2023-12-28T04:01:24;38.17;;;32.03;;
12631;SDS011;6381;45.748;12.106;2023-12-28T04:03:55;33.90;;;30.30;;
12631;SDS011;6381;45.748;12.106;2023-12-28T04:06:25;34.60;;;30.50;;
12631;SDS011;6381;45.748;12.106;2023-12-28T04:08:57;32.80;;;29.20;;
12631;SDS011;6381;45.748;12.106;2023-12-28T04:11:29;34.33;;;29.27;;
12631;SDS011;6381;45.748;12.106;2023-12-28T04:13:59;37.17;;;30.07;;
12631;SDS011;6381;45.748;12.106;2023-12-28T04:16:29;35.43;;;30.50;;
12631;SDS011;6381;45.748;12.106;2023-12-28T04:18:59;34.63;;;30.50;;
12631;SDS011;6381;45.748;12.106;2023-12-28T04:21:30;46.13;;;36.03;;
12631;SDS011;6381;45.748;12.106;2023-12-28T04:24:03;41.13;;;32.47;;
12631;SDS011;6381;45.748;12.106;2023-12-28T04:26:34;40.23;;;33.67;;
12631;SDS011;6381;45.748;12.106;2023-12-28T04:29:04;44.70;;;34.13;;
12631;SDS011;6381;45.748;12.106;2023-12-28T04:31:39;43.83;;;36.20;;
12631;SDS011;6381;45.748;12.106;2023-12-28T04:34:10;46.17;;;37.70;;
12631;SDS011;6381;45.748;12.106;2023-12-28T04:36:40;50.83;;;37.67;;
12631;SDS011;6381;45.748;12.106;2023-12-28T04:39:11;50.63;;;32.80;;
12631;SDS011;6381;45.748;12.106;2023-12-28T04:41:43;39.30;;;29.97;;
12631;SDS011;6381;45.748;12.106;2023-12-28T04:44:13;38.80;;;30.60;;
12631;SDS011;6381;45.748;12.106;2023-12-28T04:46:45;36.30;;;29.37;;
12631;SDS011;6381;45.748;12.106;2023-12-28T04:49:15;36.00;;;30.53;;
12631;SDS011;6381;45.748;12.106;2023-12-28T04:51:45;36.50;;;29.70;;
12631;SDS011;6381;45.748;12.106;2023-12-28T04:54:15;35.37;;;30.03;;
12631;SDS011;6381;45.748;12.106;2023-12-28T04:56:46;39.20;;;31.57;;
12631;SDS011;6381;45.748;12.106;2023-12-28T04:59:18;36.07;;;31.23;;
12631;SDS011;6381;45.748;12.106;2023-12-28T05:01:48;42.07;;;31.27;;
12631;SDS011;6381;45.748;12.106;2023-12-28T05:04:18;38.10;;;30.40;;
12631;SDS011;6381;45.748;12.106;2023-12-28T05:06:49;35.00;;;28.60;;
12631;SDS011;6381;45.748;12.106;2023-12-28T05:09:19;38.33;;;28.90;;
12631;SDS011;6381;45.748;12.106;2023-12-28T05:11:50;34.00;;;27.13;;
12631;SDS011;6381;45.748;12.106;2023-12-28T05:14:20;33.37;;;27.83;;
12631;SDS011;6381;45.748;12.106;2023-12-28T05:16:50;35.93;;;27.87;;
12631;SDS011;6381;45.748;12.106;2023-12-28T05:19:20;31.57;;;26.33;;
12631;SDS011;6381;45.748;12.106;2023-12-28T05:21:51;30.47;;;26.70;;
12631;SDS011;6381;45.748;12.106;2023-12-28T05:24:21;29.50;;;26.07;;
12631;SDS011;6381;45.748;12.106;2023-12-28T05:26:54;31.73;;;25.93;;
12631;SDS011;6381;45.748;12.106;2023-12-28T05:29:23;31.93;;;25.83;;
12631;SDS011;6381;45.748;12.106;2023-12-28T05:31:53;32.73;;;26.37;;
12631;SDS011;6381;45.748;12.106;2023-12-28T05:34:24;27.97;;;23.60;;
12631;SDS011;6381;45.748;12.106;2023-12-28T05:36:54;33.63;;;25.33;;
12631;SDS011;6381;45.748;12.106;2023-12-28T05:39:24;30.20;;;23.53;;
12631;SDS011;6381;45.748;12.106;2023-12-28T05:41:56;28.40;;;24.40;;
12631;SDS011;6381;45.748;12.106;2023-12-28T05:44:27;27.77;;;24.33;;
12631;SDS011;6381;45.748;12.106;2023-12-28T05:47:01;30.63;;;24.57;;
12631;SDS011;6381;45.748;12.106;2023-12-28T05:49:31;27.57;;;23.57;;
12631;SDS011;6381;45.748;12.106;2023-12-28T05:52:02;28.37;;;24.23;;
12631;SDS011;6381;45.748;12.106;2023-12-28T05:54:32;26.97;;;24.07;;
12631;SDS011;6381;45.748;12.106;2023-12-28T05:57:04;27.60;;;24.00;;
12631;SDS011;6381;45.748;12.106;2023-12-28T05:59:37;29.60;;;23.73;;
12631;SDS011;6381;45.748;12.106;2023-12-28T06:02:08;27.27;;;23.47;;
12631;SDS011;6381;45.748;12.106;2023-12-28T06:04:38;27.33;;;22.90;;
12631;SDS011;6381;45.748;12.106;2023-12-28T06:07:09;29.63;;;22.70;;
12631;SDS011;6381;45.748;12.106;2023-12-28T06:09:38;29.73;;;24.50;;
12631;SDS011;6381;45.748;12.106;2023-12-28T06:12:10;28.10;;;25.10;;
12631;SDS011;6381;45.748;12.106;2023-12-28T06:14:41;26.30;;;23.40;;
12631;SDS011;6381;45.748;12.106;2023-12-28T06:17:11;29.47;;;25.00;;
12631;SDS011;6381;45.748;12.106;2023-12-28T06:19:43;29.70;;;25.83;;
12631;SDS011;6381;45.748;12.106;2023-12-28T06:22:13;27.90;;;24.90;;
12631;SDS011;6381;45.748;12.106;2023-12-28T06:24:43;28.70;;;25.57;;
12631;SDS011;6381;45.748;12.106;2023-12-28T06:27:14;28.50;;;25.43;;
12631;SDS011;6381;45.748;12.106;2023-12-28T06:29:44;31.33;;;26.80;;
12631;SDS011;6381;45.748;12.106;2023-12-28T06:32:13;30.33;;;26.57;;
12631;SDS011;6381;45.748;12.106;2023-12-28T06:34:43;29.40;;;25.37;;
12631;SDS011;6381;45.748;12.106;2023-12-28T06:37:13;29.37;;;24.93;;
12631;SDS011;6381;45.748;12.106;2023-12-28T06:39:45;29.33;;;26.13;;
12631;SDS011;6381;45.748;12.106;2023-12-28T06:42:18;27.77;;;24.73;;
12631;SDS011;6381;45.748;12.106;2023-12-28T06:44:48;31.33;;;26.30;;
12631;SDS011;6381;45.748;12.106;2023-12-28T06:47:20;30.10;;;25.10;;
12631;SDS011;6381;45.748;12.106;2023-12-28T06:49:51;28.10;;;25.10;;
12631;SDS011;6381;45.748;12.106;2023-12-28T06:52:25;29.23;;;24.67;;
12631;SDS011;6381;45.748;12.106;2023-12-28T06:54:59;31.30;;;25.40;;
12631;SDS011;6381;45.748;12.106;2023-12-28T06:57:35;31.03;;;26.50;;
12631;SDS011;6381;45.748;12.106;2023-12-28T07:00:07;29.90;;;26.03;;
12631;SDS011;6381;45.748;12.106;2023-12-28T07:02:41;32.67;;;26.33;;
12631;SDS011;6381;45.748;12.106;2023-12-28T07:05:12;30.27;;;26.50;;
12631;SDS011;6381;45.748;12.106;2023-12-28T07:07:46;29.30;;;26.17;;
12631;SDS011;6381;45.748;12.106;2023-12-28T07:10:25;33.67;;;26.80;;
12631;SDS011;6381;45.748;12.106;2023-12-28T07:13:03;30.27;;;25.93;;
12631;SDS011;6381;45.748;12.106;2023-12-28T07:15:38;31.70;;;26.70;;
12631;SDS011;6381;45.748;12.106;2023-12-28T07:18:17;29.43;;;24.93;;
12631;SDS011;6381;45.748;12.106;2023-12-28T07:20:55;27.00;;;24.00;;
12631;SDS011;6381;45.748;12.106;2023-12-28T07:23:25;29.87;;;25.50;;
12631;SDS011;6381;45.748;12.106;2023-12-28T07:25:57;32.27;;;26.43;;
12631;SDS011;6381;45.748;12.106;2023-12-28T07:28:29;28.20;;;25.20;;
12631;SDS011;6381;45.748;12.106;2023-12-28T07:31:01;29.03;;;24.80;;
12631;SDS011;6381;45.748;12.106;2023-12-28T07:33:31;28.93;;;25.03;;
12631;SDS011;6381;45.748;12.106;2023-12-28T07:36:01;28.83;;;25.67;;
12631;SDS011;6381;45.748;12.106;2023-12-28T07:38:37;30.57;;;25.27;;
12631;SDS011;6381;45.748;12.106;2023-12-28T07:41:12;28.20;;;25.03;;
12631;SDS011;6381;45.748;12.106;2023-12-28T07:43:49;33.27;;;27.70;;
12631;SDS011;6381;45.748;12.106;2023-12-28T07:46:32;34.90;;;29.20;;
12631;SDS011;6381;45.748;12.106;2023-12-28T07:49:10;46.37;;;34.33;;
12631;SDS011;6381;45.748;12.106;2023-12-28T07:51:46;42.53;;;34.70;;
12631;SDS011;6381;45.748;12.106;2023-12-28T07:54:22;31.77;;;27.57;;
12631;SDS011;6381;45.748;12.106;2023-12-28T07:57:01;34.50;;;25.83;;
12631;SDS011;6381;45.748;12.106;2023-12-28T07:59:37;34.50;;;26.40;;
12631;SDS011;6381;45.748;12.106;2023-12-28T08:02:15;54.83;;;37.07;;
12631;SDS011;6381;45.748;12.106;2023-12-28T08:04:51;48.87;;;35.50;;
12631;SDS011;6381;45.748;12.106;2023-12-28T08:07:26;57.30;;;38.23;;
12631;SDS011;6381;45.748;12.106;2023-12-28T08:10:01;50.37;;;35.97;;
12631;SDS011;6381;45.748;12.106;2023-12-28T08:12:37;39.87;;;32.03;;
12631;SDS011;6381;45.748;12.106;2023-12-28T08:15:15;42.57;;;32.33;;
12631;SDS011;6381;45.748;12.106;2023-12-28T08:17:51;37.60;;;30.53;;
12631;SDS011;6381;45.748;12.106;2023-12-28T08:20:25;39.07;;;32.10;;
12631;SDS011;6381;45.748;12.106;2023-12-28T08:22:58;42.60;;;34.50;;
12631;SDS011;6381;45.748;12.106;2023-12-28T08:25:52;38.90;;;32.23;;
12631;SDS011;6381;45.748;12.106;2023-12-28T08:29:00;35.00;;;29.90;;
12631;SDS011;6381;45.748;12.106;2023-12-28T08:31:34;38.70;;;31.03;;
12631;SDS011;6381;45.748;12.106;2023-12-28T08:34:09;37.03;;;30.00;;
12631;SDS011;6381;45.748;12.106;2023-12-28T08:36:39;38.40;;;29.17;;
12631;SDS011;6381;45.748;12.106;2023-12-28T08:39:13;36.53;;;28.37;;
12631;SDS011;6381;45.748;12.106;2023-12-28T08:41:47;36.03;;;29.80;;
12631;SDS011;6381;45.748;12.106;2023-12-28T08:44:22;37.97;;;27.63;;
12631;SDS011;6381;45.748;12.106;2023-12-28T08:46:59;34.37;;;28.53;;
12631;SDS011;6381;45.748;12.106;2023-12-28T08:49:34;33.70;;;26.57;;
12631;SDS011;6381;45.748;12.106;2023-12-28T08:52:07;31.60;;;28.20;;
12631;SDS011;6381;45.748;12.106;2023-12-28T08:54:41;33.97;;;28.00;;
12631;SDS011;6381;45.748;12.106;2023-12-28T08:57:15;40.13;;;29.13;;
12631;SDS011;6381;45.748;12.106;2023-12-28T09:00:06;41.67;;;32.87;;
12631;SDS011;6381;45.748;12.106;2023-12-28T09:02:42;45.43;;;31.70;;
12631;SDS011;6381;45.748;12.106;2023-12-28T09:05:15;40.87;;;32.27;;
12631;SDS011;6381;45.748;12.106;2023-12-28T09:07:52;45.40;;;34.40;;
12631;SDS011;6381;45.748;12.106;2023-12-28T09:10:30;44.23;;;34.97;;
12631;SDS011;6381;45.748;12.106;2023-12-28T09:13:15;47.90;;;36.43;;
12631;SDS011;6381;45.748;12.106;2023-12-28T09:15:52;50.53;;;38.07;;
12631;SDS011;6381;45.748;12.106;2023-12-28T09:18:36;53.33;;;36.23;;
12631;SDS011;6381;45.748;12.106;2023-12-28T09:21:14;47.47;;;35.90;;
12631;SDS011;6381;45.748;12.106;2023-12-28T09:23:49;45.73;;;35.03;;
12631;SDS011;6381;45.748;12.106;2023-12-28T09:26:21;47.17;;;36.77;;
12631;SDS011;6381;45.748;12.106;2023-12-28T09:28:56;45.03;;;34.73;;
12631;SDS011;6381;45.748;12.106;2023-12-28T09:31:37;45.03;;;33.90;;
12631;SDS011;6381;45.748;12.106;2023-12-28T09:34:17;37.97;;;32.90;;
12631;SDS011;6381;45.748;12.106;2023-12-28T09:36:53;40.00;;;31.87;;
12631;SDS011;6381;45.748;12.106;2023-12-28T09:39:27;36.67;;;32.20;;
12631;SDS011;6381;45.748;12.106;2023-12-28T09:42:04;44.23;;;34.37;;
12631;SDS011;6381;45.748;12.106;2023-12-28T09:44:44;48.20;;;34.27;;
12631;SDS011;6381;45.748;12.106;2023-12-28T09:47:14;39.90;;;32.37;;
12631;SDS011;6381;45.748;12.106;2023-12-28T09:49:48;37.70;;;33.23;;
12631;SDS011;6381;45.748;12.106;2023-12-28T09:52:22;44.47;;;35.00;;
12631;SDS011;6381;45.748;12.106;2023-12-28T09:54:52;42.37;;;34.57;;
12631;SDS011;6381;45.748;12.106;2023-12-28T09:57:23;42.57;;;34.30;;
12631;SDS011;6381;45.748;12.106;2023-12-28T09:59:54;42.50;;;34.70;;
12631;SDS011;6381;45.748;12.106;2023-12-28T10:02:26;43.20;;;35.03;;
12631;SDS011;6381;45.748;12.106;2023-12-28T10:04:57;41.77;;;35.17;;
12631;SDS011;6381;45.748;12.106;2023-12-28T10:07:27;43.30;;;34.47;;
12631;SDS011;6381;45.748;12.106;2023-12-28T10:09:58;43.60;;;36.27;;
12631;SDS011;6381;45.748;12.106;2023-12-28T10:12:31;43.20;;;34.93;;
12631;SDS011;6381;45.748;12.106;2023-12-28T10:15:03;44.57;;;36.33;;
12631;SDS011;6381;45.748;12.106;2023-12-28T10:17:35;45.63;;;36.60;;
12631;SDS011;6381;45.748;12.106;2023-12-28T10:20:08;44.73;;;36.47;;
12631;SDS011;6381;45.748;12.106;2023-12-28T10:22:40;49.97;;;36.67;;
12631;SDS011;6381;45.748;12.106;2023-12-28T10:25:12;50.70;;;35.87;;
12631;SDS011;6381;45.748;12.106;2023-12-28T10:27:42;50.47;;;37.93;;
12631;SDS011;6381;45.748;12.106;2023-12-28T10:30:15;47.90;;;36.20;;
12631;SDS011;6381;45.748;12.106;2023-12-28T10:32:45;46.90;;;37.60;;
12631;SDS011;6381;45.748;12.106;2023-12-28T10:35:19;46.87;;;37.40;;
12631;SDS011;6381;45.748;12.106;2023-12-28T10:37:50;45.73;;;36.90;;
12631;SDS011;6381;45.748;12.106;2023-12-28T10:40:21;48.27;;;36.27;;
12631;SDS011;6381;45.748;12.106;2023-12-28T10:42:54;46.43;;;36.03;;
12631;SDS011;6381;45.748;12.106;2023-12-28T10:45:31;48.10;;;35.57;;
12631;SDS011;6381;45.748;12.106;2023-12-28T10:48:04;48.77;;;36.60;;
12631;SDS011;6381;45.748;12.106;2023-12-28T10:50:39;51.10;;;37.77;;
12631;SDS011;6381;45.748;12.106;2023-12-28T10:53:19;47.20;;;36.40;;
12631;SDS011;6381;45.748;12.106;2023-12-28T10:56:23;45.97;;;36.77;;
12631;SDS011;6381;45.748;12.106;2023-12-28T11:00:19;47.70;;;37.00;;
12631;SDS011;6381;45.748;12.106;2023-12-28T11:03:02;49.23;;;37.17;;
12631;SDS011;6381;45.748;12.106;2023-12-28T11:05:35;46.50;;;37.73;;
12631;SDS011;6381;45.748;12.106;2023-12-28T11:08:07;47.87;;;38.50;;
12631;SDS011;6381;45.748;12.106;2023-12-28T11:10:38;50.20;;;37.73;;
12631;SDS011;6381;45.748;12.106;2023-12-28T11:13:08;53.57;;;39.20;;
12631;SDS011;6381;45.748;12.106;2023-12-28T11:15:39;48.97;;;38.63;;
12631;SDS011;6381;45.748;12.106;2023-12-28T11:18:10;49.57;;;37.80;;
12631;SDS011;6381;45.748;12.106;2023-12-28T11:20:42;46.37;;;37.53;;
12631;SDS011;6381;45.748;12.106;2023-12-28T11:23:13;51.67;;;38.00;;
12631;SDS011;6381;45.748;12.106;2023-12-28T11:25:43;51.13;;;37.30;;
12631;SDS011;6381;45.748;12.106;2023-12-28T11:28:14;48.60;;;38.67;;
12631;SDS011;6381;45.748;12.106;2023-12-28T11:30:44;44.27;;;36.77;;
12631;SDS011;6381;45.748;12.106;2023-12-28T11:33:17;52.33;;;38.20;;
12631;SDS011;6381;45.748;12.106;2023-12-28T11:35:47;50.63;;;37.63;;
12631;SDS011;6381;45.748;12.106;2023-12-28T11:38:23;46.23;;;36.73;;
12631;SDS011;6381;45.748;12.106;2023-12-28T11:40:54;55.33;;;39.63;;
12631;SDS011;6381;45.748;12.106;2023-12-28T11:43:25;52.63;;;38.90;;
12631;SDS011;6381;45.748;12.106;2023-12-28T11:46:00;47.53;;;39.67;;
12631;SDS011;6381;45.748;12.106;2023-12-28T11:48:33;47.17;;;40.73;;
12631;SDS011;6381;45.748;12.106;2023-12-28T11:51:04;47.77;;;39.63;;
12631;SDS011;6381;45.748;12.106;2023-12-28T11:53:35;51.77;;;42.87;;
12631;SDS011;6381;45.748;12.106;2023-12-28T11:56:09;51.27;;;42.23;;
12631;SDS011;6381;45.748;12.106;2023-12-28T11:58:45;52.03;;;42.07;;
12631;SDS011;6381;45.748;12.106;2023-12-28T12:01:16;49.07;;;39.67;;
12631;SDS011;6381;45.748;12.106;2023-12-28T12:03:47;50.83;;;41.50;;
12631;SDS011;6381;45.748;12.106;2023-12-28T12:06:18;56.93;;;44.33;;
12631;SDS011;6381;45.748;12.106;2023-12-28T12:08:50;56.10;;;43.70;;
12631;SDS011;6381;45.748;12.106;2023-12-28T12:11:19;49.97;;;41.40;;
12631;SDS011;6381;45.748;12.106;2023-12-28T12:17:44;53.00;;;42.47;;
12631;SDS011;6381;45.748;12.106;2023-12-28T12:20:15;63.63;;;47.03;;
12631;SDS011;6381;45.748;12.106;2023-12-28T12:22:45;52.30;;;43.27;;
12631;SDS011;6381;45.748;12.106;2023-12-28T12:25:17;48.20;;;39.03;;
12631;SDS011;6381;45.748;12.106;2023-12-28T12:27:48;53.07;;;40.87;;
12631;SDS011;6381;45.748;12.106;2023-12-28T12:30:21;48.10;;;38.77;;
12631;SDS011;6381;45.748;12.106;2023-12-28T12:32:52;47.47;;;39.23;;
12631;SDS011;6381;45.748;12.106;2023-12-28T12:35:22;49.57;;;39.77;;
12631;SDS011;6381;45.748;12.106;2023-12-28T12:37:53;46.33;;;39.27;;
12631;SDS011;6381;45.748;12.106;2023-12-28T12:40:25;50.40;;;40.90;;
12631;SDS011;6381;45.748;12.106;2023-12-28T12:42:56;47.93;;;38.77;;
12631;SDS011;6381;45.748;12.106;2023-12-28T12:45:27;50.90;;;38.77;;
12631;SDS011;6381;45.748;12.106;2023-12-28T12:47:57;54.97;;;39.40;;
12631;SDS011;6381;45.748;12.106;2023-12-28T12:50:27;53.57;;;42.23;;
12631;SDS011;6381;45.748;12.106;2023-12-28T12:52:59;64.60;;;46.83;;
12631;SDS011;6381;45.748;12.106;2023-12-28T12:55:35;67.13;;;47.50;;
12631;SDS011;6381;45.748;12.106;2023-12-28T12:58:08;52.67;;;42.60;;
12631;SDS011;6381;45.748;12.106;2023-12-28T13:00:41;49.33;;;39.53;;
12631;SDS011;6381;45.748;12.106;2023-12-28T13:03:15;44.33;;;38.10;;
12631;SDS011;6381;45.748;12.106;2023-12-28T13:05:46;48.57;;;38.03;;
12631;SDS011;6381;45.748;12.106;2023-12-28T13:08:24;46.80;;;38.43;;
12631;SDS011;6381;45.748;12.106;2023-12-28T13:11:04;44.27;;;37.50;;
12631;SDS011;6381;45.748;12.106;2023-12-28T13:13:42;48.10;;;37.37;;
12631;SDS011;6381;45.748;12.106;2023-12-28T13:16:17;47.97;;;37.30;;
12631;SDS011;6381;45.748;12.106;2023-12-28T13:18:53;44.33;;;35.97;;
12631;SDS011;6381;45.748;12.106;2023-12-28T13:21:31;43.33;;;35.87;;
12631;SDS011;6381;45.748;12.106;2023-12-28T13:24:08;45.50;;;37.93;;
12631;SDS011;6381;45.748;12.106;2023-12-28T13:26:50;43.43;;;35.63;;
12631;SDS011;6381;45.748;12.106;2023-12-28T13:29:28;45.40;;;35.87;;
12631;SDS011;6381;45.748;12.106;2023-12-28T13:32:13;39.93;;;34.83;;
12631;SDS011;6381;45.748;12.106;2023-12-28T13:36:02;50.50;;;37.43;;
12631;SDS011;6381;45.748;12.106;2023-12-28T13:38:34;44.73;;;34.60;;
12631;SDS011;6381;45.748;12.106;2023-12-28T13:41:05;45.20;;;35.53;;
12631;SDS011;6381;45.748;12.106;2023-12-28T13:43:40;44.90;;;34.67;;
12631;SDS011;6381;45.748;12.106;2023-12-28T13:46:11;43.07;;;33.47;;
12631;SDS011;6381;45.748;12.106;2023-12-28T13:48:42;39.33;;;31.53;;
12631;SDS011;6381;45.748;12.106;2023-12-28T13:51:13;41.73;;;32.60;;
12631;SDS011;6381;45.748;12.106;2023-12-28T13:53:43;37.40;;;31.00;;
12631;SDS011;6381;45.748;12.106;2023-12-28T13:56:14;36.50;;;29.17;;
12631;SDS011;6381;45.748;12.106;2023-12-28T13:58:54;36.80;;;28.97;;
12631;SDS011;6381;45.748;12.106;2023-12-28T14:01:25;34.75;;;28.65;;
12631;SDS011;6381;45.748;12.106;2023-12-28T14:04:00;35.63;;;27.77;;
12631;SDS011;6381;45.748;12.106;2023-12-28T14:06:30;37.60;;;27.60;;
12631;SDS011;6381;45.748;12.106;2023-12-28T14:09:02;32.15;;;26.67;;
12631;SDS011;6381;45.748;12.106;2023-12-28T14:11:33;31.55;;;25.90;;
12631;SDS011;6381;45.748;12.106;2023-12-28T14:14:05;31.53;;;25.60;;
12631;SDS011;6381;45.748;12.106;2023-12-28T14:16:35;32.95;;;27.08;;
12631;SDS011;6381;45.748;12.106;2023-12-28T14:19:05;35.77;;;26.23;;
12631;SDS011;6381;45.748;12.106;2023-12-28T14:21:35;34.33;;;27.90;;
12631;SDS011;6381;45.748;12.106;2023-12-28T14:24:07;36.13;;;27.40;;
12631;SDS011;6381;45.748;12.106;2023-12-28T14:26:40;29.90;;;26.53;;
12631;SDS011;6381;45.748;12.106;2023-12-28T14:29:17;34.80;;;26.70;;
12631;SDS011;6381;45.748;12.106;2023-12-28T14:31:49;32.53;;;27.23;;
12631;SDS011;6381;45.748;12.106;2023-12-28T14:34:19;31.93;;;26.97;;
12631;SDS011;6381;45.748;12.106;2023-12-28T14:36:50;36.07;;;28.13;;
12631;SDS011;6381;45.748;12.106;2023-12-28T14:39:22;32.50;;;27.77;;
12631;SDS011;6381;45.748;12.106;2023-12-28T14:41:53;39.37;;;29.33;;
12631;SDS011;6381;45.748;12.106;2023-12-28T14:44:26;37.33;;;30.27;;
12631;SDS011;6381;45.748;12.106;2023-12-28T14:46:57;36.73;;;29.60;;
12631;SDS011;6381;45.748;12.106;2023-12-28T14:49:27;40.07;;;28.73;;
12631;SDS011;6381;45.748;12.106;2023-12-28T14:51:58;35.00;;;28.70;;
12631;SDS011;6381;45.748;12.106;2023-12-28T14:54:27;35.83;;;28.80;;
12631;SDS011;6381;45.748;12.106;2023-12-28T14:56:58;38.97;;;30.20;;
12631;SDS011;6381;45.748;12.106;2023-12-28T14:59:30;34.00;;;29.20;;